createdAt,value
2019-01-26T00:01:47.623Z,2.10
2019-01-26T00:04:17.798Z,2.18
2019-01-26T00:06:47.537Z,2.20
2019-01-26T00:09:17.132Z,2.16
2019-01-26T00:11:46.861Z,2.20
2019-01-26T00:14:16.248Z,2.16
2019-01-26T00:16:45.632Z,2.16
2019-01-26T00:19:15.816Z,2.28
2019-01-26T00:21:45.387Z,2.36
2019-01-26T00:24:14.345Z,2.42
2019-01-26T00:26:43.280Z,2.40
2019-01-26T00:29:13.657Z,2.38
2019-01-26T00:31:43.018Z,2.55
2019-01-26T00:34:12.689Z,2.54
2019-01-26T00:36:41.691Z,2.63
2019-01-26T00:39:11.431Z,2.71
2019-01-26T00:41:40.310Z,2.70
2019-01-26T00:44:10.411Z,2.66
2019-01-26T00:46:40.159Z,2.77
2019-01-26T00:49:09.519Z,2.77
2019-01-26T00:51:39.537Z,2.75
2019-01-26T00:54:10.186Z,2.89
2019-01-26T00:56:39.876Z,2.87
2019-01-26T00:59:09.577Z,2.96
2019-01-26T01:01:38.847Z,3.01
2019-01-26T01:04:08.394Z,3.01
2019-01-26T01:06:38.042Z,3.02
2019-01-26T01:09:09.781Z,2.96
2019-01-26T01:11:39.759Z,3.05
2019-01-26T01:14:09.281Z,3.05
2019-01-26T01:16:39.001Z,2.99
2019-01-26T01:19:08.741Z,3.03
2019-01-26T01:21:38.483Z,3.03
2019-01-26T01:24:07.754Z,3.07
2019-01-26T01:26:36.673Z,3.08
2019-01-26T01:29:06.366Z,3.06
2019-01-26T01:31:35.896Z,3.08
2019-01-26T01:34:07.488Z,3.09
2019-01-26T01:36:39.868Z,3.08
2019-01-26T01:39:12.295Z,3.13
2019-01-26T01:41:44.442Z,3.10
2019-01-26T01:44:14.119Z,3.12
2019-01-26T01:46:43.629Z,3.13
2019-01-26T01:49:13.232Z,3.22
2019-01-26T01:51:42.962Z,3.27
2019-01-26T01:54:15.234Z,3.27
2019-01-26T01:56:46.114Z,3.27
2019-01-26T01:59:34.339Z,3.30
2019-01-26T02:02:02.978Z,3.28
2019-01-26T02:04:32.523Z,3.29
2019-01-26T02:07:01.145Z,3.25
2019-01-26T02:09:29.709Z,3.40
2019-01-26T02:11:58.621Z,3.50
2019-01-26T02:14:27.193Z,3.50
2019-01-26T02:16:56.476Z,3.51
2019-01-26T02:19:25.113Z,3.47
2019-01-26T02:21:54.681Z,3.50
2019-01-26T02:24:23.209Z,3.50
2019-01-26T02:26:51.754Z,3.53
2019-01-26T02:29:20.664Z,3.58
2019-01-26T02:31:50.210Z,3.52
2019-01-26T02:34:19.765Z,3.62
2019-01-26T02:36:48.973Z,3.74
2019-01-26T02:39:17.581Z,3.72
2019-01-26T02:41:46.844Z,3.76
2019-01-26T02:44:16.254Z,3.81
2019-01-26T02:46:45.467Z,3.75
2019-01-26T02:49:14.391Z,3.84
2019-01-26T02:51:44.040Z,3.80
2019-01-26T02:54:12.981Z,3.85
2019-01-26T02:56:42.225Z,3.78
2019-01-26T02:59:11.528Z,3.82
2019-01-26T03:01:40.457Z,3.81
2019-01-26T03:04:09.650Z,3.87
2019-01-26T03:06:38.876Z,3.88
2019-01-26T03:09:09.331Z,3.90
2019-01-26T03:11:37.866Z,3.98
2019-01-26T03:14:06.408Z,4.02
2019-01-26T03:16:34.973Z,4.00
2019-01-26T03:19:03.517Z,3.98
2019-01-26T03:21:32.781Z,4.03
2019-01-26T03:24:01.349Z,4.01
2019-01-26T03:26:30.571Z,4.08
2019-01-26T03:28:59.103Z,4.15
2019-01-26T03:31:27.679Z,4.14
2019-01-26T03:33:56.252Z,4.15
2019-01-26T03:36:24.788Z,4.18
2019-01-26T03:38:54.735Z,4.20
2019-01-26T03:41:23.381Z,4.16
2019-01-26T03:43:51.923Z,4.21
2019-01-26T03:46:20.462Z,4.21
2019-01-26T03:48:49.039Z,4.25
2019-01-26T03:51:17.575Z,4.19
2019-01-26T03:53:46.110Z,4.04
2019-01-26T03:56:14.698Z,4.16
2019-01-26T03:58:43.289Z,4.20
2019-01-26T04:01:11.826Z,4.20
2019-01-26T04:03:40.395Z,4.20
2019-01-26T04:06:09.002Z,4.28
2019-01-26T04:08:37.550Z,4.26
2019-01-26T04:11:06.123Z,4.22
2019-01-26T04:13:34.671Z,4.23
2019-01-26T04:16:03.257Z,4.26
2019-01-26T04:18:31.808Z,4.25
2019-01-26T04:21:00.350Z,4.33
2019-01-26T04:23:28.911Z,4.32
2019-01-26T04:25:57.455Z,4.23
2019-01-26T04:28:26.034Z,4.05
2019-01-26T04:30:54.574Z,3.92
2019-01-26T04:33:23.121Z,3.99
2019-01-26T04:35:51.704Z,3.84
2019-01-26T04:38:20.252Z,3.87
2019-01-26T04:40:49.146Z,3.36
2019-01-26T04:43:17.714Z,3.47
2019-01-26T04:45:46.297Z,3.41
2019-01-26T04:48:14.835Z,3.47
2019-01-26T04:50:43.461Z,3.51
2019-01-26T04:53:12.044Z,3.33
2019-01-26T04:55:40.582Z,3.37
2019-01-26T04:58:09.130Z,3.37
2019-01-26T05:00:37.709Z,3.43
2019-01-26T05:03:06.285Z,3.46
2019-01-26T05:05:34.891Z,3.53
2019-01-26T05:08:03.445Z,3.59
2019-01-26T05:10:31.982Z,3.56
2019-01-26T05:13:00.542Z,3.49
2019-01-26T05:15:29.109Z,3.35
2019-01-26T05:17:57.673Z,3.54
2019-01-26T05:20:26.560Z,3.23
2019-01-26T05:22:55.143Z,3.21
2019-01-26T05:25:23.688Z,3.48
2019-01-26T05:27:52.217Z,3.48
2019-01-26T05:30:23.001Z,3.48
2019-01-26T05:32:51.576Z,3.36
2019-01-26T05:35:20.131Z,3.53
2019-01-26T05:37:48.683Z,3.54
2019-01-26T05:40:17.328Z,3.34
2019-01-26T05:42:45.876Z,3.45
2019-01-26T05:45:17.368Z,3.50
2019-01-26T05:47:48.594Z,3.63
2019-01-26T05:50:20.137Z,3.73
2019-01-26T05:52:48.746Z,3.82
2019-01-26T05:55:18.349Z,3.78
2019-01-26T05:57:47.575Z,3.81
2019-01-26T06:00:21.670Z,4.12
2019-01-26T06:02:50.584Z,4.20
2019-01-26T06:05:19.243Z,4.34
2019-01-26T06:07:50.022Z,4.57
2019-01-26T06:10:18.762Z,4.69
2019-01-26T06:12:47.331Z,4.70
2019-01-26T06:15:16.043Z,4.67
2019-01-26T06:17:44.613Z,4.96
2019-01-26T06:20:13.311Z,4.87
2019-01-26T06:22:41.961Z,4.95
2019-01-26T06:25:12.522Z,5.14
2019-01-26T06:27:41.019Z,5.13
2019-01-26T06:30:13.193Z,5.18
2019-01-26T06:32:41.765Z,5.17
2019-01-26T06:35:10.303Z,5.23
2019-01-26T06:37:39.225Z,5.35
2019-01-26T06:40:10.717Z,5.38
2019-01-26T06:42:39.568Z,5.28
2019-01-26T06:45:09.760Z,5.36
2019-01-26T06:47:39.023Z,5.32
2019-01-26T06:50:10.894Z,5.42
2019-01-26T06:52:39.464Z,5.47
2019-01-26T06:55:09.627Z,5.47
2019-01-26T06:57:38.189Z,5.39
2019-01-26T07:00:09.941Z,5.41
2019-01-26T07:02:39.134Z,5.46
2019-01-26T07:05:30.665Z,5.52
2019-01-26T07:07:59.632Z,5.56
2019-01-26T07:10:28.602Z,5.50
2019-01-26T07:13:11.731Z,5.49
2019-01-26T07:15:39.933Z,5.49
2019-01-26T07:18:09.518Z,5.58
2019-01-26T07:20:38.451Z,5.63
2019-01-26T07:23:07.795Z,5.62
2019-01-26T07:25:37.159Z,5.65
2019-01-26T07:28:06.013Z,5.61
2019-01-26T07:30:34.907Z,5.65
2019-01-26T07:33:03.485Z,5.72
2019-01-26T07:35:32.015Z,5.64
2019-01-26T07:38:00.549Z,5.67
2019-01-26T07:40:29.466Z,5.62
2019-01-26T07:42:58.033Z,5.71
2019-01-26T07:45:26.916Z,5.85
2019-01-26T07:47:55.452Z,5.86
2019-01-26T07:50:24.090Z,5.81
2019-01-26T07:52:52.626Z,5.81
2019-01-26T07:55:21.162Z,5.85
2019-01-26T07:57:49.735Z,5.84
2019-01-26T08:00:20.576Z,5.89
2019-01-26T08:02:49.115Z,5.83
2019-01-26T08:05:17.724Z,5.82
2019-01-26T08:07:46.249Z,5.93
2019-01-26T08:10:17.375Z,5.92
2019-01-26T08:12:45.942Z,5.92
2019-01-26T08:15:16.797Z,5.99
2019-01-26T08:17:45.422Z,5.97
2019-01-26T08:20:16.018Z,5.89
2019-01-26T08:22:44.547Z,5.94
2019-01-26T08:25:13.173Z,5.97
2019-01-26T08:27:41.711Z,5.99
2019-01-26T08:30:21.775Z,5.99
2019-01-26T08:32:50.415Z,5.96
2019-01-26T08:35:19.189Z,5.98
2019-01-26T08:37:47.800Z,6.12
2019-01-26T08:40:17.404Z,6.09
2019-01-26T08:42:45.947Z,6.13
2019-01-26T08:45:14.901Z,6.08
2019-01-26T08:47:43.656Z,6.11
2019-01-26T08:50:17.367Z,6.21
2019-01-26T08:52:46.293Z,6.16
2019-01-26T08:55:18.279Z,6.18
2019-01-26T08:57:45.219Z,6.29
2019-01-26T09:00:19.695Z,6.25
2019-01-26T09:03:13.464Z,6.21
2019-01-26T09:05:57.141Z,6.21
2019-01-26T09:08:25.925Z,6.28
2019-01-26T09:10:54.818Z,6.29
2019-01-26T09:13:23.690Z,6.39
2019-01-26T09:15:52.271Z,6.43
2019-01-26T09:18:20.812Z,6.46
2019-01-26T09:20:49.367Z,6.47
2019-01-26T09:23:17.967Z,6.49
2019-01-26T09:25:46.551Z,6.49
2019-01-26T09:28:15.091Z,6.44
2019-01-26T09:30:43.630Z,6.42
2019-01-26T09:33:12.210Z,6.51
2019-01-26T09:35:40.754Z,6.49
2019-01-26T09:38:09.298Z,6.51
2019-01-26T09:40:37.855Z,6.54
2019-01-26T09:43:07.515Z,6.60
2019-01-26T09:45:36.095Z,6.64
2019-01-26T09:48:04.882Z,6.58
2019-01-26T09:50:33.427Z,6.66
2019-01-26T09:53:02.018Z,6.64
2019-01-26T09:55:30.586Z,6.63
2019-01-26T09:57:59.126Z,6.72
2019-01-26T10:00:27.725Z,6.68
2019-01-26T10:02:56.254Z,6.70
2019-01-26T10:05:24.801Z,6.72
2019-01-26T10:07:53.378Z,6.70
2019-01-26T10:10:22.307Z,6.70
2019-01-26T10:12:50.857Z,6.70
2019-01-26T10:15:19.787Z,6.75
2019-01-26T10:17:48.402Z,6.78
2019-01-26T10:20:22.382Z,6.77
2019-01-26T10:22:50.937Z,6.79
2019-01-26T10:25:19.514Z,6.81
2019-01-26T10:27:48.139Z,6.79
2019-01-26T10:30:21.677Z,6.84
2019-01-26T10:32:50.236Z,6.84
2019-01-26T10:35:19.464Z,6.88
2019-01-26T10:37:48.026Z,6.94
2019-01-26T10:40:39.474Z,6.93
2019-01-26T10:43:08.110Z,6.87
2019-01-26T10:45:36.838Z,6.89
2019-01-26T10:48:05.770Z,6.77
2019-01-26T10:50:34.343Z,6.81
2019-01-26T10:53:02.885Z,6.79
2019-01-26T10:55:31.526Z,6.76
2019-01-26T10:58:00.072Z,6.84
2019-01-26T11:00:29.000Z,6.84
2019-01-26T11:02:57.544Z,6.84
2019-01-26T11:05:26.080Z,6.86
2019-01-26T11:07:54.645Z,6.86
2019-01-26T11:10:23.251Z,6.80
2019-01-26T11:12:51.840Z,6.78
2019-01-26T11:15:20.383Z,6.75
2019-01-26T11:17:48.929Z,6.72
2019-01-26T11:20:17.491Z,6.65
2019-01-26T11:22:46.061Z,6.65
2019-01-26T11:25:14.670Z,6.67
2019-01-26T11:27:44.141Z,6.70
2019-01-26T11:30:12.777Z,6.72
2019-01-26T11:32:41.310Z,6.70
2019-01-26T11:35:11.086Z,6.73
2019-01-26T11:37:39.649Z,6.72
2019-01-26T11:40:16.483Z,6.71
2019-01-26T11:42:45.054Z,6.78
2019-01-26T11:45:38.515Z,6.76
2019-01-26T11:48:13.176Z,6.74
2019-01-26T11:50:44.817Z,6.76
2019-01-26T11:53:13.391Z,6.78
2019-01-26T11:55:50.739Z,6.80
2019-01-26T11:58:19.282Z,6.73
2019-01-26T12:01:06.874Z,6.75
2019-01-26T12:03:54.434Z,6.73
2019-01-26T12:06:27.039Z,6.74
2019-01-26T12:08:55.616Z,6.77
2019-01-26T12:11:24.221Z,6.76
2019-01-26T12:13:52.761Z,6.75
2019-01-26T12:16:26.884Z,6.71
2019-01-26T12:18:51.601Z,6.72
2019-01-26T12:21:20.149Z,6.74
2019-01-26T12:23:48.724Z,6.69
2019-01-26T12:26:17.267Z,6.68
2019-01-26T12:28:45.807Z,6.70
2019-01-26T12:31:14.380Z,6.73
2019-01-26T12:33:42.921Z,6.72
2019-01-26T12:36:11.505Z,6.75
2019-01-26T12:38:40.079Z,6.74
2019-01-26T12:41:08.622Z,6.71
2019-01-26T12:43:37.161Z,6.75
2019-01-26T12:46:05.744Z,6.83
2019-01-26T12:48:34.290Z,6.81
2019-01-26T12:51:02.829Z,6.85
2019-01-26T12:53:31.409Z,6.80
2019-01-26T12:55:59.945Z,6.82
2019-01-26T12:58:28.495Z,6.84
2019-01-26T13:00:57.064Z,6.74
2019-01-26T13:03:25.628Z,6.78
2019-01-26T13:05:54.171Z,6.74
2019-01-26T13:08:22.744Z,6.74
2019-01-26T13:10:54.723Z,6.80
2019-01-26T13:13:23.261Z,6.80
2019-01-26T13:15:51.827Z,6.79
2019-01-26T13:18:20.410Z,6.74
2019-01-26T13:20:48.956Z,6.76
2019-01-26T13:23:17.499Z,6.71
2019-01-26T13:25:46.065Z,6.67
2019-01-26T13:28:14.735Z,6.68
2019-01-26T13:30:43.290Z,6.66
2019-01-26T13:33:11.833Z,6.61
2019-01-26T13:35:40.408Z,6.59
2019-01-26T13:38:09.006Z,6.63
2019-01-26T13:40:37.605Z,6.55
2019-01-26T13:43:06.154Z,6.58
2019-01-26T13:45:34.700Z,6.53
2019-01-26T13:48:03.294Z,6.47
2019-01-26T13:50:31.847Z,6.51
2019-01-26T13:53:00.396Z,6.50
2019-01-26T13:55:28.980Z,6.50
2019-01-26T13:57:57.529Z,6.57
2019-01-26T14:00:28.528Z,6.58
2019-01-26T14:02:57.106Z,6.57
2019-01-26T14:05:25.673Z,6.54
2019-01-26T14:07:54.262Z,6.55
2019-01-26T14:10:22.840Z,6.55
2019-01-26T14:12:51.419Z,6.63
2019-01-26T14:15:20.015Z,6.58
2019-01-26T14:17:48.572Z,6.61
2019-01-26T14:20:19.251Z,6.65
2019-01-26T14:22:47.898Z,6.59
2019-01-26T14:25:16.648Z,6.59
2019-01-26T14:27:45.227Z,6.60
2019-01-26T14:30:22.930Z,6.57
2019-01-26T14:32:52.619Z,6.47
2019-01-26T14:35:21.451Z,6.48
2019-01-26T14:37:49.998Z,6.53
2019-01-26T14:40:18.608Z,6.45
2019-01-26T14:42:53.944Z,6.48
2019-01-26T14:45:17.510Z,6.43
2019-01-26T14:47:46.094Z,6.40
2019-01-26T14:50:14.772Z,6.36
2019-01-26T14:52:43.282Z,6.41
2019-01-26T14:55:14.535Z,6.39
2019-01-26T14:57:43.113Z,6.48
2019-01-26T15:00:21.293Z,6.36
2019-01-26T15:02:49.905Z,6.43
2019-01-26T15:05:18.457Z,6.37
2019-01-26T15:07:46.998Z,6.34
2019-01-26T15:10:15.586Z,6.38
2019-01-26T15:12:44.144Z,6.37
2019-01-26T15:15:12.743Z,6.33
2019-01-26T15:17:41.351Z,6.42
2019-01-26T15:20:13.447Z,6.40
2019-01-26T15:22:42.018Z,6.37
2019-01-26T15:25:10.602Z,6.31
2019-01-26T15:27:39.153Z,6.48
2019-01-26T15:30:15.909Z,6.42
2019-01-26T15:32:44.461Z,6.39
2019-01-26T15:35:13.046Z,6.36
2019-01-26T15:37:41.585Z,6.34
2019-01-26T15:40:10.280Z,6.35
2019-01-26T15:42:38.871Z,6.41
2019-01-26T15:45:11.177Z,6.43
2019-01-26T15:47:39.770Z,6.47
2019-01-26T15:50:13.143Z,6.40
2019-01-26T15:52:39.908Z,6.39
2019-01-26T15:55:11.248Z,6.41
2019-01-26T15:57:39.787Z,6.43
2019-01-26T16:00:12.460Z,6.42
2019-01-26T16:02:41.009Z,6.48
2019-01-26T16:05:09.590Z,6.40
2019-01-26T16:07:38.175Z,6.40
2019-01-26T16:10:07.516Z,6.36
2019-01-26T16:12:36.091Z,6.39
2019-01-26T16:15:05.792Z,6.43
2019-01-26T16:17:34.333Z,6.36
2019-01-26T16:20:02.951Z,6.33
2019-01-26T16:22:31.503Z,6.41
2019-01-26T16:25:00.057Z,6.35
2019-01-26T16:27:28.702Z,6.35
2019-01-26T16:29:57.278Z,6.42
2019-01-26T16:32:25.832Z,6.42
2019-01-26T16:34:54.416Z,6.40
2019-01-26T16:37:22.962Z,6.37
2019-01-26T16:39:51.514Z,6.41
2019-01-26T16:42:20.080Z,6.46
2019-01-26T16:44:48.622Z,6.50
2019-01-26T16:47:17.204Z,6.49
2019-01-26T16:49:45.754Z,6.54
2019-01-26T16:52:14.337Z,6.46
2019-01-26T16:54:42.899Z,6.43
2019-01-26T16:57:11.514Z,6.48
2019-01-26T16:59:40.095Z,6.47
2019-01-26T17:02:08.641Z,6.49
2019-01-26T17:04:37.185Z,6.51
2019-01-26T17:07:05.766Z,6.50
2019-01-26T17:09:34.306Z,6.55
2019-01-26T17:12:02.884Z,6.49
2019-01-26T17:14:31.478Z,6.43
2019-01-26T17:17:00.018Z,6.52
2019-01-26T17:19:28.621Z,6.50
2019-01-26T17:21:57.162Z,6.59
2019-01-26T17:24:25.708Z,6.56
2019-01-26T17:26:54.294Z,6.51
2019-01-26T17:29:22.843Z,6.44
2019-01-26T17:31:51.392Z,6.57
2019-01-26T17:34:19.980Z,6.60
2019-01-26T17:36:48.530Z,6.62
2019-01-26T17:39:17.073Z,6.57
2019-01-26T17:41:45.652Z,6.57
2019-01-26T17:44:14.515Z,6.54
2019-01-26T17:46:43.325Z,6.54
2019-01-26T17:49:12.499Z,6.46
2019-01-26T17:51:41.733Z,6.49
2019-01-26T17:54:10.288Z,6.53
2019-01-26T17:56:38.833Z,6.41
2019-01-26T17:59:07.408Z,6.38
2019-01-26T18:01:35.956Z,6.35
2019-01-26T18:04:04.498Z,6.35
2019-01-26T18:06:33.077Z,6.35
2019-01-26T18:09:01.669Z,6.34
2019-01-26T18:11:30.297Z,6.40
2019-01-26T18:13:58.841Z,6.34
2019-01-26T18:16:27.386Z,6.30
2019-01-26T18:18:55.972Z,6.32
2019-01-26T18:21:24.521Z,6.33
2019-01-26T18:23:53.091Z,6.38
2019-01-26T18:26:22.037Z,6.37
2019-01-26T18:28:50.585Z,6.38
2019-01-26T18:31:19.165Z,6.34
2019-01-26T18:33:47.718Z,6.35
2019-01-26T18:36:16.252Z,6.24
2019-01-26T18:38:44.831Z,6.22
2019-01-26T18:41:13.372Z,6.06
2019-01-26T18:43:41.946Z,6.02
2019-01-26T18:46:10.487Z,6.01
2019-01-26T18:48:39.354Z,6.17
2019-01-26T18:51:07.943Z,6.17
2019-01-26T18:53:36.480Z,6.18
2019-01-26T18:56:05.068Z,6.22
2019-01-26T18:58:33.599Z,6.19
2019-01-26T19:01:02.139Z,6.21
2019-01-26T19:03:41.631Z,6.19
2019-01-26T19:06:10.175Z,6.18
2019-01-26T19:08:38.719Z,6.16
2019-01-26T19:11:07.300Z,6.17
2019-01-26T19:13:35.867Z,6.18
2019-01-26T19:16:04.934Z,6.17
2019-01-26T19:18:33.517Z,6.10
2019-01-26T19:21:03.248Z,6.13
2019-01-26T19:23:32.188Z,6.13
2019-01-26T19:26:00.765Z,6.08
2019-01-26T19:28:29.305Z,6.11
2019-01-26T19:30:57.905Z,6.04
2019-01-26T19:33:26.452Z,6.11
2019-01-26T19:35:54.998Z,6.08
2019-01-26T19:38:23.581Z,6.06
2019-01-26T19:40:52.133Z,6.02
2019-01-26T19:43:20.709Z,5.97
2019-01-26T19:45:49.598Z,5.91
2019-01-26T19:48:18.211Z,5.86
2019-01-26T19:50:46.757Z,5.87
2019-01-26T19:53:15.301Z,5.86
2019-01-26T19:55:44.447Z,5.85
2019-01-26T19:58:13.071Z,5.82
2019-01-26T20:00:41.635Z,5.78
2019-01-26T20:03:10.209Z,5.74
2019-01-26T20:05:38.748Z,5.75
2019-01-26T20:08:07.622Z,5.69
2019-01-26T20:10:36.246Z,5.57
2019-01-26T20:13:04.853Z,5.72
2019-01-26T20:15:33.428Z,5.74
2019-01-26T20:18:01.970Z,5.71
2019-01-26T20:20:32.555Z,5.72
2019-01-26T20:23:01.097Z,5.70
2019-01-26T20:25:29.672Z,5.69
2019-01-26T20:27:58.218Z,5.67
2019-01-26T20:30:28.782Z,5.62
2019-01-26T20:32:57.513Z,5.63
2019-01-26T20:35:26.114Z,5.56
2019-01-26T20:37:54.740Z,5.58
2019-01-26T20:40:23.279Z,5.53
2019-01-26T20:42:51.853Z,5.56
2019-01-26T20:45:22.666Z,5.54
2019-01-26T20:47:51.205Z,5.57
2019-01-26T20:50:19.852Z,5.51
2019-01-26T20:52:48.427Z,5.46
2019-01-26T20:55:16.973Z,5.42
2019-01-26T20:57:45.517Z,5.40
2019-01-26T21:00:20.246Z,5.46
2019-01-26T21:02:48.819Z,5.43
2019-01-26T21:05:17.398Z,5.39
2019-01-26T21:07:45.940Z,5.40
2019-01-26T21:10:23.292Z,5.35
2019-01-26T21:12:51.963Z,5.40
2019-01-26T21:15:20.594Z,5.31
2019-01-26T21:17:49.152Z,5.30
2019-01-26T21:20:18.726Z,5.28
2019-01-26T21:22:47.317Z,5.24
2019-01-26T21:25:15.863Z,5.26
2019-01-26T21:27:44.406Z,5.10
2019-01-26T21:30:18.420Z,5.07
2019-01-26T21:32:46.985Z,5.08
2019-01-26T21:35:15.521Z,5.14
2019-01-26T21:37:44.181Z,5.15
2019-01-26T21:40:39.778Z,5.16
2019-01-26T21:43:08.351Z,5.21
2019-01-26T21:45:36.890Z,5.19
2019-01-26T21:48:05.460Z,5.18
2019-01-26T21:50:34.005Z,5.13
2019-01-26T21:53:02.542Z,5.18
2019-01-26T21:55:31.116Z,5.16
2019-01-26T21:57:59.680Z,5.18
2019-01-26T22:00:30.482Z,5.21
2019-01-26T22:02:59.023Z,5.19
2019-01-26T22:05:27.590Z,5.20
2019-01-26T22:07:56.130Z,5.23
2019-01-26T22:10:24.689Z,5.21
2019-01-26T22:12:53.255Z,5.20
2019-01-26T22:15:22.632Z,5.22
2019-01-26T22:17:51.203Z,5.23
2019-01-26T22:20:21.433Z,5.21
2019-01-26T22:22:50.139Z,5.21
2019-01-26T22:25:19.404Z,5.21
2019-01-26T22:27:47.977Z,5.22
2019-01-26T22:30:19.361Z,5.20
2019-01-26T22:32:47.909Z,5.16
2019-01-26T22:35:16.739Z,5.10
2019-01-26T22:37:45.841Z,5.08
2019-01-26T22:40:17.469Z,5.12
2019-01-26T22:42:46.044Z,5.07
2019-01-26T22:45:14.586Z,5.02
2019-01-26T22:47:43.123Z,4.98
2019-01-26T22:50:12.971Z,4.96
2019-01-26T22:52:41.625Z,4.94
2019-01-26T22:55:11.138Z,4.89
2019-01-26T22:57:39.710Z,4.87
2019-01-26T23:00:27.808Z,4.87
2019-01-26T23:02:56.392Z,4.86
2019-01-26T23:06:03.571Z,4.83
2019-01-26T23:08:32.152Z,4.87
2019-01-26T23:11:14.768Z,4.93
2019-01-26T23:14:52.180Z,4.84
2019-01-26T23:17:53.603Z,4.82
2019-01-26T23:20:41.206Z,4.82
2019-01-26T23:23:49.771Z,4.87
2019-01-26T23:26:47.901Z,4.88
2019-01-26T23:29:47.051Z,4.89
2019-01-26T23:32:15.584Z,4.94
2019-01-26T23:34:44.123Z,4.93
2019-01-26T23:37:12.689Z,4.89
2019-01-26T23:39:41.230Z,4.80
2019-01-26T23:42:10.098Z,4.76
2019-01-26T23:44:38.643Z,4.69
2019-01-26T23:47:07.223Z,4.55
2019-01-26T23:49:35.779Z,4.62
2019-01-26T23:52:04.350Z,4.67
2019-01-26T23:54:32.916Z,4.72
2019-01-26T23:57:01.459Z,4.80
2019-01-26T23:59:30.028Z,4.85
